DLH7LV EDDF-LQSA
Flight info
| Callsign | DLH7LV |
|---|---|
| Flight time | 1h 36m |
| Altitude | 35000 |
| Route | CINDY8S/18 CINDY Z74 LAMPU DCT NOMBO Y161 MAH DCT VAVOR DCT RADIZ DCT KUSIB DCT OKSIG DCT MARIL L608 BOSNA |
| Aircraft | A321/M-SDE3FGHIRWY/LB1 |
Departure
| Time | 2026-05-06 16:53 |
|---|---|
| Airport | Frankfurt Main Airport (EDDF) |
Arrival
| Time | 2026-05-06 18:30 |
|---|---|
| Airport | Sarajevo International Airport (LQSA) |
| Time | Latitude | Longitude | Altitude | Speed | Heading |
|---|---|---|---|---|---|
| 2026-05-06 15:55 | 50.04639 | 8.56656 | 356 ft | 0 kts | 115° |
| 2026-05-06 16:38 | 50.04648 | 8.56626 | 358 ft | 4 kts | 114° |
| 2026-05-06 16:38 | 50.04659 | 8.56588 | 362 ft | 4 kts | 116° |
| 2026-05-06 16:38 | 50.04673 | 8.56552 | 363 ft | 4 kts | 137° |
| 2026-05-06 16:39 | 50.04689 | 8.56538 | 364 ft | 3 kts | 204° |
| 2026-05-06 16:39 | 50.04673 | 8.56527 | 362 ft | 4 kts | 205° |
| 2026-05-06 16:39 | 50.04649 | 8.56509 | 361 ft | 4 kts | 205° |
| 2026-05-06 16:39 | 50.04625 | 8.56492 | 362 ft | 4 kts | 205° |
| 2026-05-06 16:40 | 50.04600 | 8.56475 | 358 ft | 4 kts | 205° |
| 2026-05-06 16:40 | 50.04583 | 8.56462 | 356 ft | 0 kts | 205° |
| 2026-05-06 16:43 | 50.04582 | 8.56462 | 356 ft | 1 kts | 205° |
| 2026-05-06 16:44 | 50.04565 | 8.56450 | 357 ft | 5 kts | 205° |
| 2026-05-06 16:44 | 50.04525 | 8.56408 | 362 ft | 9 kts | 230° |
| 2026-05-06 16:44 | 50.04499 | 8.56311 | 359 ft | 13 kts | 249° |
| 2026-05-06 16:44 | 50.04465 | 8.56171 | 363 ft | 15 kts | 250° |
| 2026-05-06 16:45 | 50.04414 | 8.56037 | 356 ft | 15 kts | 205° |
| 2026-05-06 16:45 | 50.04322 | 8.56067 | 357 ft | 12 kts | 163° |
| 2026-05-06 16:45 | 50.04255 | 8.56001 | 357 ft | 13 kts | 244° |
| 2026-05-06 16:45 | 50.04221 | 8.55865 | 361 ft | 15 kts | 249° |
| 2026-05-06 16:46 | 50.04182 | 8.55702 | 361 ft | 17 kts | 250° |
| 2026-05-06 16:46 | 50.04139 | 8.55526 | 357 ft | 18 kts | 247° |
| 2026-05-06 16:46 | 50.04097 | 8.55342 | 353 ft | 18 kts | 250° |
| 2026-05-06 16:46 | 50.04054 | 8.55162 | 357 ft | 17 kts | 250° |
| 2026-05-06 16:47 | 50.04012 | 8.54989 | 354 ft | 17 kts | 249° |
| 2026-05-06 16:47 | 50.03971 | 8.54821 | 355 ft | 17 kts | 249° |
| 2026-05-06 16:47 | 50.03930 | 8.54649 | 352 ft | 17 kts | 249° |
| 2026-05-06 16:47 | 50.03890 | 8.54480 | 352 ft | 17 kts | 250° |
| 2026-05-06 16:48 | 50.03839 | 8.54324 | 353 ft | 16 kts | 234° |
| 2026-05-06 16:48 | 50.03788 | 8.54174 | 350 ft | 15 kts | 249° |
| 2026-05-06 16:48 | 50.03752 | 8.54023 | 350 ft | 14 kts | 250° |
| 2026-05-06 16:48 | 50.03718 | 8.53881 | 353 ft | 14 kts | 249° |
| 2026-05-06 16:49 | 50.03686 | 8.53748 | 350 ft | 13 kts | 249° |
| 2026-05-06 16:49 | 50.03655 | 8.53620 | 345 ft | 12 kts | 248° |
| 2026-05-06 16:49 | 50.03626 | 8.53502 | 339 ft | 11 kts | 249° |
| 2026-05-06 16:49 | 50.03598 | 8.53390 | 338 ft | 12 kts | 249° |
| 2026-05-06 16:50 | 50.03560 | 8.53234 | 338 ft | 18 kts | 250° |
| 2026-05-06 16:50 | 50.03519 | 8.53058 | 335 ft | 18 kts | 249° |
| 2026-05-06 16:50 | 50.03473 | 8.52874 | 332 ft | 18 kts | 248° |
| 2026-05-06 16:50 | 50.03427 | 8.52704 | 333 ft | 13 kts | 249° |
| 2026-05-06 16:51 | 50.03396 | 8.52609 | 332 ft | 7 kts | 220° |
| 2026-05-06 16:51 | 50.03348 | 8.52594 | 335 ft | 7 kts | 179° |
| 2026-05-06 16:51 | 50.03341 | 8.52594 | 335 ft | 0 kts | 179° |
| 2026-05-06 16:52 | 50.03340 | 8.52594 | 335 ft | 1 kts | 179° |
| 2026-05-06 16:52 | 50.03304 | 8.52594 | 332 ft | 20 kts | 179° |
| 2026-05-06 16:52 | 50.02896 | 8.52598 | 331 ft | 95 kts | 180° |
| 2026-05-06 16:52 | 50.02023 | 8.52608 | 333 ft | 154 kts | 180° |
| 2026-05-06 16:53 | 50.00791 | 8.52625 | 402 ft | 193 kts | 181° |
| 2026-05-06 16:53 | 49.99439 | 8.52662 | 1048 ft | 198 kts | 180° |
| 2026-05-06 16:53 | 49.98043 | 8.52723 | 1759 ft | 202 kts | 173° |
| 2026-05-06 16:53 | 49.96712 | 8.53521 | 2202 ft | 216 kts | 148° |
| 2026-05-06 16:54 | 49.95666 | 8.55314 | 2509 ft | 234 kts | 121° |
| 2026-05-06 16:54 | 49.94872 | 8.57551 | 3161 ft | 237 kts | 120° |
| 2026-05-06 16:54 | 49.94205 | 8.59890 | 3890 ft | 240 kts | 106° |
| 2026-05-06 16:54 | 49.93973 | 8.62552 | 4301 ft | 262 kts | 95° |
| 2026-05-06 16:55 | 49.93864 | 8.65447 | 4837 ft | 273 kts | 96° |
| 2026-05-06 16:55 | 49.93441 | 8.68309 | 5556 ft | 273 kts | 116° |
| 2026-05-06 16:55 | 49.92424 | 8.70774 | 6320 ft | 271 kts | 135° |
| 2026-05-06 16:55 | 49.90970 | 8.72630 | 7023 ft | 272 kts | 147° |
| 2026-05-06 16:56 | 49.89429 | 8.74350 | 7734 ft | 275 kts | 142° |
| 2026-05-06 16:56 | 49.88104 | 8.76516 | 8427 ft | 280 kts | 127° |
| 2026-05-06 16:56 | 49.87106 | 8.79135 | 9131 ft | 285 kts | 121° |
| 2026-05-06 16:56 | 49.86140 | 8.81829 | 9819 ft | 288 kts | 121° |
| 2026-05-06 16:57 | 49.85144 | 8.84594 | 10137 ft | 305 kts | 121° |
| 2026-05-06 16:57 | 49.84065 | 8.87568 | 10267 ft | 327 kts | 121° |
| 2026-05-06 16:57 | 49.82932 | 8.90691 | 10623 ft | 337 kts | 121° |
| 2026-05-06 16:57 | 49.81773 | 8.93887 | 11199 ft | 342 kts | 121° |
| 2026-05-06 16:58 | 49.80599 | 8.97125 | 11778 ft | 345 kts | 121° |
| 2026-05-06 16:58 | 49.79430 | 9.00333 | 12390 ft | 348 kts | 122° |
| 2026-05-06 16:58 | 49.78214 | 9.03658 | 13018 ft | 352 kts | 122° |
| 2026-05-06 16:58 | 49.77013 | 9.06941 | 13599 ft | 355 kts | 121° |
| 2026-05-06 16:59 | 49.76016 | 9.10460 | 14138 ft | 361 kts | 110° |
| 2026-05-06 16:59 | 49.75380 | 9.14237 | 14668 ft | 365 kts | 107° |
| 2026-05-06 16:59 | 49.74538 | 9.17878 | 15189 ft | 364 kts | 118° |
| 2026-05-06 16:59 | 49.73219 | 9.21267 | 15762 ft | 364 kts | 129° |
| 2026-05-06 17:00 | 49.71598 | 9.24212 | 16300 ft | 365 kts | 133° |
| 2026-05-06 17:00 | 49.69921 | 9.27161 | 16844 ft | 367 kts | 133° |
| 2026-05-06 17:00 | 49.68227 | 9.30144 | 17376 ft | 370 kts | 133° |
| 2026-05-06 17:00 | 49.66535 | 9.33128 | 17896 ft | 372 kts | 133° |
| 2026-05-06 17:01 | 49.64821 | 9.36154 | 18369 ft | 375 kts | 133° |
| 2026-05-06 17:01 | 49.63095 | 9.39191 | 18807 ft | 377 kts | 134° |
| 2026-05-06 17:01 | 49.61162 | 9.41920 | 19254 ft | 377 kts | 145° |
| 2026-05-06 17:01 | 49.58956 | 9.44098 | 19699 ft | 378 kts | 151° |
| 2026-05-06 17:02 | 49.56682 | 9.46168 | 20136 ft | 380 kts | 150° |
| 2026-05-06 17:02 | 49.54403 | 9.48246 | 20563 ft | 383 kts | 151° |
| 2026-05-06 17:02 | 49.52104 | 9.50345 | 21003 ft | 385 kts | 150° |
| 2026-05-06 17:02 | 49.49798 | 9.52448 | 21431 ft | 387 kts | 150° |
| 2026-05-06 17:03 | 49.47477 | 9.54564 | 21837 ft | 389 kts | 150° |
| 2026-05-06 17:03 | 49.45142 | 9.56691 | 22265 ft | 392 kts | 150° |
| 2026-05-06 17:03 | 49.42785 | 9.58834 | 22676 ft | 394 kts | 150° |
| 2026-05-06 17:03 | 49.40423 | 9.60978 | 23083 ft | 396 kts | 150° |
| 2026-05-06 17:04 | 49.38047 | 9.63132 | 23492 ft | 398 kts | 150° |
| 2026-05-06 17:04 | 49.35655 | 9.65301 | 23853 ft | 399 kts | 149° |
| 2026-05-06 17:04 | 49.33406 | 9.67790 | 24214 ft | 402 kts | 140° |
| 2026-05-06 17:04 | 49.31397 | 9.70784 | 24585 ft | 404 kts | 136° |
| 2026-05-06 17:05 | 49.29411 | 9.73837 | 24955 ft | 405 kts | 136° |
| 2026-05-06 17:05 | 49.27417 | 9.76887 | 25324 ft | 406 kts | 137° |
| 2026-05-06 17:05 | 49.25414 | 9.79936 | 25686 ft | 407 kts | 137° |
| 2026-05-06 17:05 | 49.23395 | 9.83006 | 26038 ft | 408 kts | 137° |
| 2026-05-06 17:06 | 49.21378 | 9.86069 | 26386 ft | 410 kts | 137° |
| 2026-05-06 17:06 | 49.19350 | 9.89150 | 26742 ft | 411 kts | 137° |
| 2026-05-06 17:06 | 49.17324 | 9.92227 | 27088 ft | 412 kts | 137° |
| 2026-05-06 17:06 | 49.15292 | 9.95309 | 27414 ft | 414 kts | 137° |
| 2026-05-06 17:07 | 49.13234 | 9.98425 | 27771 ft | 415 kts | 137° |
| 2026-05-06 17:07 | 49.11204 | 10.01491 | 28125 ft | 417 kts | 137° |
| 2026-05-06 17:07 | 49.09142 | 10.04600 | 28431 ft | 418 kts | 137° |
| 2026-05-06 17:07 | 49.07115 | 10.07656 | 28728 ft | 420 kts | 137° |
| 2026-05-06 17:08 | 49.05017 | 10.10788 | 29044 ft | 422 kts | 138° |
| 2026-05-06 17:08 | 49.02896 | 10.13846 | 29363 ft | 423 kts | 139° |
| 2026-05-06 17:08 | 49.00735 | 10.16890 | 29669 ft | 425 kts | 140° |
| 2026-05-06 17:08 | 48.98536 | 10.19952 | 29952 ft | 426 kts | 140° |
| 2026-05-06 17:09 | 48.96342 | 10.23001 | 30179 ft | 428 kts | 140° |
| 2026-05-06 17:09 | 48.94145 | 10.26066 | 30410 ft | 430 kts | 140° |
| 2026-05-06 17:09 | 48.91941 | 10.29164 | 30606 ft | 431 kts | 140° |
| 2026-05-06 17:09 | 48.89737 | 10.32275 | 30802 ft | 433 kts | 140° |
| 2026-05-06 17:10 | 48.87529 | 10.35397 | 31067 ft | 433 kts | 140° |
| 2026-05-06 17:10 | 48.85323 | 10.38512 | 31346 ft | 432 kts | 140° |
| 2026-05-06 17:10 | 48.83124 | 10.41607 | 31614 ft | 432 kts | 140° |
| 2026-05-06 17:10 | 48.81682 | 10.43701 | 31782 ft | 433 kts | 139° |
| 2026-05-06 17:11 | 48.79565 | 10.46955 | 32022 ft | 434 kts | 137° |
| 2026-05-06 17:11 | 48.77498 | 10.50289 | 32268 ft | 434 kts | 136° |
| 2026-05-06 17:11 | 48.75460 | 10.53646 | 32525 ft | 434 kts | 136° |
| 2026-05-06 17:11 | 48.73409 | 10.57031 | 32746 ft | 435 kts | 136° |
| 2026-05-06 17:12 | 48.71368 | 10.60373 | 32992 ft | 435 kts | 137° |
| 2026-05-06 17:12 | 48.69289 | 10.63730 | 33218 ft | 435 kts | 137° |
| 2026-05-06 17:12 | 48.67210 | 10.67048 | 33442 ft | 435 kts | 137° |
| 2026-05-06 17:12 | 48.65124 | 10.70354 | 33672 ft | 435 kts | 138° |
| 2026-05-06 17:13 | 48.63020 | 10.73679 | 33866 ft | 436 kts | 138° |
| 2026-05-06 17:13 | 48.60921 | 10.76990 | 34071 ft | 436 kts | 138° |
| 2026-05-06 17:13 | 48.58822 | 10.80305 | 34277 ft | 437 kts | 138° |
| 2026-05-06 17:13 | 48.56736 | 10.83614 | 34466 ft | 437 kts | 138° |
| 2026-05-06 17:14 | 48.54647 | 10.86955 | 34668 ft | 438 kts | 138° |
| 2026-05-06 17:14 | 48.52550 | 10.90323 | 34785 ft | 439 kts | 138° |
| 2026-05-06 17:14 | 48.50463 | 10.93674 | 34811 ft | 439 kts | 138° |
| 2026-05-06 17:15 | 48.46270 | 11.00337 | 34811 ft | 439 kts | 139° |
| 2026-05-06 17:15 | 48.42029 | 11.06925 | 34808 ft | 439 kts | 139° |
| 2026-05-06 17:16 | 48.37760 | 11.13525 | 34810 ft | 439 kts | 139° |
| 2026-05-06 17:16 | 48.33503 | 11.20113 | 34812 ft | 440 kts | 139° |
| 2026-05-06 17:17 | 48.29229 | 11.26721 | 34831 ft | 441 kts | 139° |
| 2026-05-06 17:17 | 48.25877 | 11.32521 | 34837 ft | 448 kts | 129° |
| 2026-05-06 17:18 | 48.25053 | 11.34566 | 34906 ft | 449 kts | 123° |
| 2026-05-06 17:19 | 48.22116 | 11.42923 | 34836 ft | 451 kts | 126° |
| 2026-05-06 17:19 | 48.18910 | 11.50796 | 34839 ft | 451 kts | 127° |
| 2026-05-06 17:20 | 48.15628 | 11.58826 | 34843 ft | 453 kts | 126° |
| 2026-05-06 17:20 | 48.12439 | 11.66970 | 34825 ft | 455 kts | 125° |
| 2026-05-06 17:21 | 48.09275 | 11.75170 | 34825 ft | 456 kts | 125° |
| 2026-05-06 17:21 | 48.06085 | 11.83369 | 34829 ft | 456 kts | 126° |
| 2026-05-06 17:22 | 48.02860 | 11.91573 | 34832 ft | 457 kts | 126° |
| 2026-05-06 17:22 | 47.99640 | 11.99733 | 34821 ft | 458 kts | 126° |
| 2026-05-06 17:23 | 47.96397 | 12.07929 | 34815 ft | 458 kts | 126° |
| 2026-05-06 17:23 | 47.92874 | 12.15714 | 34795 ft | 450 kts | 137° |
| 2026-05-06 17:24 | 47.88281 | 12.21905 | 34789 ft | 444 kts | 145° |
| 2026-05-06 17:24 | 47.83536 | 12.27829 | 34763 ft | 445 kts | 145° |
| 2026-05-06 17:25 | 47.78801 | 12.33754 | 34763 ft | 445 kts | 145° |
| 2026-05-06 17:25 | 47.74080 | 12.39658 | 34744 ft | 445 kts | 145° |
| 2026-05-06 17:26 | 47.69329 | 12.45563 | 34736 ft | 445 kts | 146° |
| 2026-05-06 17:26 | 47.64557 | 12.51462 | 34729 ft | 446 kts | 146° |
| 2026-05-06 17:27 | 47.60163 | 12.58052 | 34732 ft | 453 kts | 136° |
| 2026-05-06 17:27 | 47.56040 | 12.65107 | 34804 ft | 453 kts | 140° |
| 2026-05-06 17:28 | 47.51926 | 12.72099 | 34736 ft | 448 kts | 139° |
| 2026-05-06 17:28 | 47.47830 | 12.79020 | 34731 ft | 446 kts | 139° |
| 2026-05-06 17:29 | 47.43747 | 12.85915 | 34744 ft | 446 kts | 139° |
| 2026-05-06 17:29 | 47.39666 | 12.92799 | 34754 ft | 445 kts | 139° |
| 2026-05-06 17:30 | 47.35590 | 12.99666 | 34757 ft | 444 kts | 139° |
| 2026-05-06 17:30 | 47.31505 | 13.06519 | 34771 ft | 444 kts | 139° |
| 2026-05-06 17:31 | 47.27423 | 13.13350 | 34780 ft | 445 kts | 139° |
| 2026-05-06 17:31 | 47.23321 | 13.20187 | 34794 ft | 445 kts | 139° |
| 2026-05-06 17:32 | 47.19212 | 13.27022 | 34810 ft | 446 kts | 139° |
| 2026-05-06 17:32 | 47.15105 | 13.33845 | 34814 ft | 447 kts | 139° |
| 2026-05-06 17:33 | 47.10982 | 13.40679 | 34825 ft | 447 kts | 139° |
| 2026-05-06 17:33 | 47.06837 | 13.47521 | 34843 ft | 449 kts | 139° |
| 2026-05-06 17:34 | 47.02709 | 13.54311 | 34849 ft | 450 kts | 139° |
| 2026-05-06 17:34 | 46.98519 | 13.61202 | 34851 ft | 451 kts | 138° |
| 2026-05-06 17:35 | 46.94361 | 13.68027 | 34859 ft | 453 kts | 138° |
| 2026-05-06 17:35 | 46.90165 | 13.74905 | 34855 ft | 454 kts | 138° |
| 2026-05-06 17:36 | 46.83792 | 13.85291 | 34863 ft | 455 kts | 138° |
| 2026-05-06 17:36 | 46.79606 | 13.92092 | 34860 ft | 454 kts | 138° |
| 2026-05-06 17:37 | 46.75418 | 13.98890 | 34862 ft | 454 kts | 138° |
| 2026-05-06 17:37 | 46.71197 | 14.05712 | 34862 ft | 453 kts | 137° |
| 2026-05-06 17:38 | 46.66967 | 14.12525 | 34866 ft | 453 kts | 138° |
| 2026-05-06 17:38 | 46.62742 | 14.19317 | 34863 ft | 453 kts | 138° |
| 2026-05-06 17:39 | 46.58520 | 14.26094 | 34863 ft | 453 kts | 137° |
| 2026-05-06 17:39 | 46.54279 | 14.32881 | 34864 ft | 453 kts | 138° |
| 2026-05-06 17:40 | 46.50049 | 14.39629 | 34883 ft | 453 kts | 138° |
| 2026-05-06 17:40 | 46.45807 | 14.46390 | 34867 ft | 453 kts | 138° |
| 2026-05-06 17:41 | 46.41554 | 14.53144 | 34913 ft | 454 kts | 138° |
| 2026-05-06 17:41 | 46.37296 | 14.59885 | 34913 ft | 455 kts | 138° |
| 2026-05-06 17:42 | 46.33016 | 14.66654 | 34915 ft | 455 kts | 137° |
| 2026-05-06 17:42 | 46.28739 | 14.73410 | 34909 ft | 456 kts | 138° |
| 2026-05-06 17:43 | 46.24433 | 14.80190 | 34914 ft | 457 kts | 138° |
| 2026-05-06 17:43 | 46.20128 | 14.86947 | 34920 ft | 458 kts | 137° |
| 2026-05-06 17:44 | 46.15810 | 14.93698 | 34917 ft | 458 kts | 137° |
| 2026-05-06 17:44 | 46.11478 | 15.00452 | 34918 ft | 459 kts | 137° |
| 2026-05-06 17:45 | 46.07142 | 15.07190 | 34914 ft | 459 kts | 137° |
| 2026-05-06 17:45 | 46.02797 | 15.13950 | 34916 ft | 459 kts | 137° |
| 2026-05-06 17:46 | 45.98454 | 15.20698 | 34917 ft | 460 kts | 137° |
| 2026-05-06 17:46 | 45.94107 | 15.27417 | 34919 ft | 460 kts | 137° |
| 2026-05-06 17:47 | 45.89736 | 15.34151 | 34918 ft | 460 kts | 137° |
| 2026-05-06 17:47 | 45.85368 | 15.40863 | 34919 ft | 461 kts | 137° |
| 2026-05-06 17:48 | 45.81026 | 15.47530 | 34920 ft | 461 kts | 137° |
| 2026-05-06 17:48 | 45.76648 | 15.54230 | 34920 ft | 460 kts | 137° |
| 2026-05-06 17:49 | 45.72266 | 15.60913 | 34917 ft | 460 kts | 137° |
| 2026-05-06 17:49 | 45.67878 | 15.67599 | 34919 ft | 460 kts | 137° |
| 2026-05-06 17:50 | 45.63497 | 15.74257 | 34919 ft | 460 kts | 138° |
| 2026-05-06 17:50 | 45.59110 | 15.80903 | 34918 ft | 460 kts | 137° |
| 2026-05-06 17:51 | 45.54717 | 15.87559 | 34920 ft | 460 kts | 138° |
| 2026-05-06 17:51 | 45.50335 | 15.94174 | 34919 ft | 459 kts | 138° |
| 2026-05-06 17:52 | 45.45932 | 16.00788 | 34921 ft | 459 kts | 138° |
| 2026-05-06 17:52 | 45.41535 | 16.07377 | 34919 ft | 459 kts | 138° |
| 2026-05-06 17:53 | 45.37145 | 16.13957 | 34922 ft | 459 kts | 138° |
| 2026-05-06 17:53 | 45.32747 | 16.20533 | 34926 ft | 459 kts | 138° |
| 2026-05-06 17:54 | 45.28341 | 16.27098 | 34925 ft | 459 kts | 138° |
| 2026-05-06 17:54 | 45.23956 | 16.33617 | 34925 ft | 459 kts | 138° |
| 2026-05-06 17:55 | 45.19556 | 16.40139 | 34695 ft | 451 kts | 138° |
| 2026-05-06 17:55 | 45.17372 | 16.43370 | 34450 ft | 446 kts | 138° |
| 2026-05-06 17:55 | 45.15257 | 16.46495 | 34205 ft | 444 kts | 138° |
| 2026-05-06 17:56 | 45.13840 | 16.48651 | 34042 ft | 444 kts | 136° |
| 2026-05-06 17:56 | 45.11169 | 16.53044 | 33699 ft | 443 kts | 134° |
| 2026-05-06 17:56 | 45.09856 | 16.55330 | 33503 ft | 443 kts | 133° |
| 2026-05-06 17:56 | 45.07951 | 16.58728 | 33134 ft | 438 kts | 133° |
| 2026-05-06 17:57 | 45.06070 | 16.62100 | 32656 ft | 435 kts | 133° |
| 2026-05-06 17:57 | 45.04191 | 16.65425 | 32184 ft | 431 kts | 134° |
| 2026-05-06 17:57 | 45.02307 | 16.68700 | 31710 ft | 427 kts | 134° |
| 2026-05-06 17:57 | 44.99815 | 16.72959 | 31089 ft | 423 kts | 134° |
| 2026-05-06 17:58 | 44.98569 | 16.75070 | 30786 ft | 422 kts | 134° |
| 2026-05-06 17:58 | 44.96672 | 16.78285 | 30321 ft | 419 kts | 134° |
| 2026-05-06 17:58 | 44.94808 | 16.81444 | 29859 ft | 417 kts | 134° |
| 2026-05-06 17:58 | 44.92989 | 16.84535 | 29394 ft | 413 kts | 134° |
| 2026-05-06 17:59 | 44.91143 | 16.87679 | 28938 ft | 409 kts | 134° |
| 2026-05-06 17:59 | 44.89338 | 16.90748 | 28509 ft | 405 kts | 134° |
| 2026-05-06 17:59 | 44.87578 | 16.93737 | 28083 ft | 401 kts | 134° |
| 2026-05-06 17:59 | 44.85798 | 16.96756 | 27674 ft | 397 kts | 134° |
| 2026-05-06 18:00 | 44.84041 | 16.99731 | 27259 ft | 393 kts | 134° |
| 2026-05-06 18:00 | 44.82293 | 17.02661 | 26861 ft | 390 kts | 135° |
| 2026-05-06 18:00 | 44.80535 | 17.05543 | 26473 ft | 386 kts | 135° |
| 2026-05-06 18:00 | 44.78778 | 17.08389 | 26073 ft | 382 kts | 136° |
| 2026-05-06 18:01 | 44.77041 | 17.11191 | 25664 ft | 379 kts | 136° |
| 2026-05-06 18:01 | 44.75316 | 17.13970 | 25259 ft | 376 kts | 136° |
| 2026-05-06 18:01 | 44.73601 | 17.16737 | 24853 ft | 375 kts | 136° |
| 2026-05-06 18:01 | 44.71892 | 17.19496 | 24447 ft | 373 kts | 136° |
| 2026-05-06 18:02 | 44.70216 | 17.22205 | 24028 ft | 372 kts | 136° |
| 2026-05-06 18:02 | 44.68500 | 17.24984 | 23583 ft | 371 kts | 135° |
| 2026-05-06 18:02 | 44.66815 | 17.27709 | 23125 ft | 369 kts | 135° |
| 2026-05-06 18:02 | 44.65136 | 17.30427 | 22682 ft | 366 kts | 135° |
| 2026-05-06 18:03 | 44.63478 | 17.33112 | 22259 ft | 362 kts | 135° |
| 2026-05-06 18:03 | 44.61835 | 17.35772 | 21837 ft | 359 kts | 135° |
| 2026-05-06 18:03 | 44.60208 | 17.38424 | 21386 ft | 356 kts | 135° |
| 2026-05-06 18:03 | 44.58606 | 17.41039 | 20965 ft | 353 kts | 135° |
| 2026-05-06 18:04 | 44.57009 | 17.43645 | 20536 ft | 350 kts | 135° |
| 2026-05-06 18:04 | 44.55448 | 17.46189 | 20124 ft | 348 kts | 135° |
| 2026-05-06 18:04 | 44.53853 | 17.48787 | 19696 ft | 345 kts | 135° |
| 2026-05-06 18:04 | 44.52294 | 17.51324 | 19266 ft | 343 kts | 135° |
| 2026-05-06 18:05 | 44.50737 | 17.53856 | 18853 ft | 341 kts | 134° |
| 2026-05-06 18:05 | 44.49191 | 17.56365 | 18429 ft | 339 kts | 134° |
| 2026-05-06 18:05 | 44.47677 | 17.58820 | 17985 ft | 338 kts | 134° |
| 2026-05-06 18:05 | 44.46152 | 17.61292 | 17561 ft | 333 kts | 134° |
| 2026-05-06 18:06 | 44.44646 | 17.63728 | 17145 ft | 329 kts | 134° |
| 2026-05-06 18:06 | 44.43152 | 17.66141 | 16737 ft | 326 kts | 134° |
| 2026-05-06 18:06 | 44.41675 | 17.68519 | 16339 ft | 322 kts | 134° |
| 2026-05-06 18:06 | 44.40213 | 17.70873 | 15785 ft | 323 kts | 134° |
| 2026-05-06 18:07 | 44.38734 | 17.73251 | 15319 ft | 321 kts | 134° |
| 2026-05-06 18:07 | 44.37204 | 17.75477 | 14963 ft | 313 kts | 143° |
| 2026-05-06 18:07 | 44.35419 | 17.77161 | 14596 ft | 307 kts | 155° |
| 2026-05-06 18:07 | 44.33536 | 17.78512 | 14215 ft | 304 kts | 155° |
| 2026-05-06 18:08 | 44.31663 | 17.79861 | 13849 ft | 301 kts | 155° |
| 2026-05-06 18:08 | 44.29812 | 17.81194 | 13441 ft | 298 kts | 155° |
| 2026-05-06 18:08 | 44.27982 | 17.82512 | 13080 ft | 295 kts | 155° |
| 2026-05-06 18:08 | 44.26163 | 17.83822 | 12714 ft | 291 kts | 155° |
| 2026-05-06 18:09 | 44.24374 | 17.85113 | 12358 ft | 288 kts | 155° |
| 2026-05-06 18:09 | 44.22598 | 17.86390 | 12016 ft | 285 kts | 155° |
| 2026-05-06 18:09 | 44.20846 | 17.87648 | 11654 ft | 283 kts | 155° |
| 2026-05-06 18:09 | 44.19103 | 17.88901 | 11308 ft | 281 kts | 155° |
| 2026-05-06 18:10 | 44.17382 | 17.90138 | 10990 ft | 277 kts | 155° |
| 2026-05-06 18:10 | 44.15674 | 17.91361 | 10628 ft | 274 kts | 155° |
| 2026-05-06 18:10 | 44.13992 | 17.92563 | 10296 ft | 271 kts | 155° |
| 2026-05-06 18:10 | 44.12337 | 17.93743 | 9959 ft | 269 kts | 155° |
| 2026-05-06 18:11 | 44.10650 | 17.94944 | 9592 ft | 268 kts | 155° |
| 2026-05-06 18:11 | 44.09027 | 17.96103 | 9257 ft | 266 kts | 156° |
| 2026-05-06 18:11 | 44.07753 | 17.97014 | 9005 ft | 264 kts | 156° |
| 2026-05-06 18:11 | 44.06110 | 17.97907 | 8684 ft | 258 kts | 160° |
| 2026-05-06 18:12 | 44.04487 | 17.98983 | 8356 ft | 258 kts | 155° |
| 2026-05-06 18:12 | 44.02917 | 18.00171 | 8022 ft | 258 kts | 154° |
| 2026-05-06 18:12 | 44.01323 | 18.01279 | 7707 ft | 253 kts | 162° |
| 2026-05-06 18:12 | 43.99708 | 18.02134 | 7379 ft | 245 kts | 163° |
| 2026-05-06 18:13 | 43.98116 | 18.02931 | 7056 ft | 239 kts | 164° |
| 2026-05-06 18:13 | 43.96567 | 18.03683 | 6738 ft | 234 kts | 165° |
| 2026-05-06 18:13 | 43.95047 | 18.04410 | 6448 ft | 227 kts | 165° |
| 2026-05-06 18:13 | 43.93609 | 18.05238 | 6156 ft | 223 kts | 153° |
| 2026-05-06 18:14 | 43.92454 | 18.06620 | 5902 ft | 217 kts | 134° |
| 2026-05-06 18:14 | 43.91686 | 18.08388 | 5606 ft | 211 kts | 122° |
| 2026-05-06 18:14 | 43.91040 | 18.10133 | 5343 ft | 193 kts | 121° |
| 2026-05-06 18:14 | 43.90454 | 18.11716 | 5067 ft | 177 kts | 122° |
| 2026-05-06 18:15 | 43.89914 | 18.13170 | 4831 ft | 162 kts | 123° |
| 2026-05-06 18:15 | 43.89414 | 18.14514 | 4610 ft | 153 kts | 124° |
| 2026-05-06 18:15 | 43.88925 | 18.15824 | 4392 ft | 153 kts | 123° |
| 2026-05-06 18:15 | 43.88431 | 18.17146 | 4185 ft | 154 kts | 123° |
| 2026-05-06 18:16 | 43.87947 | 18.18452 | 3922 ft | 152 kts | 122° |
| 2026-05-06 18:16 | 43.87466 | 18.19757 | 3645 ft | 154 kts | 120° |
| 2026-05-06 18:16 | 43.86954 | 18.21102 | 3457 ft | 162 kts | 118° |
| 2026-05-06 18:16 | 43.86444 | 18.22479 | 3193 ft | 159 kts | 116° |
| 2026-05-06 18:17 | 43.85950 | 18.23804 | 2935 ft | 154 kts | 117° |
| 2026-05-06 18:17 | 43.85453 | 18.25133 | 2686 ft | 153 kts | 118° |
| 2026-05-06 18:17 | 43.84975 | 18.26415 | 2464 ft | 150 kts | 119° |
| 2026-05-06 18:17 | 43.84496 | 18.27697 | 2264 ft | 151 kts | 120° |
| 2026-05-06 18:18 | 43.84024 | 18.28987 | 2065 ft | 148 kts | 120° |
| 2026-05-06 18:18 | 43.83548 | 18.30234 | 1878 ft | 144 kts | 120° |
| 2026-05-06 18:18 | 43.83097 | 18.31446 | 1710 ft | 139 kts | 120° |
| 2026-05-06 18:18 | 43.82655 | 18.32644 | 1859 ft | 149 kts | 112° |
| 2026-05-06 18:19 | 43.82672 | 18.34097 | 2720 ft | 159 kts | 67° |
| 2026-05-06 18:19 | 43.83450 | 18.35211 | 3498 ft | 173 kts | 24° |
| 2026-05-06 18:19 | 43.84690 | 18.35329 | 4173 ft | 191 kts | 341° |
| 2026-05-06 18:19 | 43.85978 | 18.34621 | 4710 ft | 207 kts | 332° |
| 2026-05-06 18:20 | 43.87317 | 18.33773 | 5250 ft | 215 kts | 330° |
| 2026-05-06 18:20 | 43.88675 | 18.32835 | 5750 ft | 220 kts | 323° |
| 2026-05-06 18:20 | 43.89778 | 18.31370 | 6198 ft | 224 kts | 306° |
| 2026-05-06 18:20 | 43.90838 | 18.29691 | 6522 ft | 238 kts | 306° |
| 2026-05-06 18:21 | 43.91950 | 18.27935 | 6711 ft | 243 kts | 306° |
| 2026-05-06 18:21 | 43.93066 | 18.26187 | 6724 ft | 242 kts | 306° |
| 2026-05-06 18:21 | 43.94180 | 18.24436 | 6730 ft | 242 kts | 306° |
| 2026-05-06 18:21 | 43.95290 | 18.22680 | 6730 ft | 242 kts | 306° |
| 2026-05-06 18:22 | 43.96394 | 18.20919 | 6726 ft | 241 kts | 306° |
| 2026-05-06 18:22 | 43.97492 | 18.19165 | 6726 ft | 241 kts | 306° |
| 2026-05-06 18:22 | 43.98414 | 18.17242 | 6725 ft | 238 kts | 289° |
| 2026-05-06 18:22 | 43.99064 | 18.15177 | 6721 ft | 238 kts | 289° |
| 2026-05-06 18:23 | 43.99503 | 18.13146 | 6721 ft | 233 kts | 274° |
| 2026-05-06 18:23 | 43.99474 | 18.10937 | 6721 ft | 227 kts | 255° |
| 2026-05-06 18:23 | 43.98933 | 18.08909 | 6717 ft | 224 kts | 237° |
| 2026-05-06 18:23 | 43.97941 | 18.07244 | 6715 ft | 224 kts | 219° |
| 2026-05-06 18:24 | 43.96619 | 18.06126 | 6647 ft | 223 kts | 202° |
| 2026-05-06 18:24 | 43.95108 | 18.05666 | 6325 ft | 223 kts | 185° |
| 2026-05-06 18:24 | 43.93560 | 18.05548 | 5951 ft | 223 kts | 184° |
| 2026-05-06 18:24 | 43.92056 | 18.05943 | 5786 ft | 225 kts | 156° |
| 2026-05-06 18:25 | 43.90838 | 18.07358 | 5756 ft | 232 kts | 132° |
| 2026-05-06 18:25 | 43.90113 | 18.09295 | 5665 ft | 225 kts | 112° |
| 2026-05-06 18:25 | 43.89731 | 18.11326 | 5518 ft | 207 kts | 107° |
| 2026-05-06 18:25 | 43.89422 | 18.13180 | 5223 ft | 191 kts | 108° |
| 2026-05-06 18:26 | 43.89108 | 18.14864 | 4871 ft | 175 kts | 111° |
| 2026-05-06 18:26 | 43.88702 | 18.16400 | 4486 ft | 166 kts | 119° |
| 2026-05-06 18:26 | 43.88209 | 18.17804 | 4131 ft | 158 kts | 122° |
| 2026-05-06 18:26 | 43.87701 | 18.19124 | 3809 ft | 152 kts | 121° |
| 2026-05-06 18:27 | 43.87186 | 18.20414 | 3478 ft | 153 kts | 119° |
| 2026-05-06 18:27 | 43.86699 | 18.21713 | 3257 ft | 152 kts | 116° |
| 2026-05-06 18:27 | 43.86224 | 18.23030 | 3055 ft | 152 kts | 117° |
| 2026-05-06 18:27 | 43.85746 | 18.24338 | 2890 ft | 152 kts | 117° |
| 2026-05-06 18:28 | 43.85253 | 18.25633 | 2715 ft | 153 kts | 118° |
| 2026-05-06 18:28 | 43.84762 | 18.26962 | 2494 ft | 157 kts | 117° |
| 2026-05-06 18:28 | 43.84249 | 18.28303 | 2275 ft | 154 kts | 117° |
| 2026-05-06 18:28 | 43.83772 | 18.29586 | 2044 ft | 146 kts | 117° |
| 2026-05-06 18:29 | 43.83326 | 18.30812 | 1820 ft | 141 kts | 118° |
| 2026-05-06 18:29 | 43.82867 | 18.32053 | 1683 ft | 147 kts | 117° |
| 2026-05-06 18:29 | 43.82483 | 18.33086 | 1696 ft | 111 kts | 117° |
| 2026-05-06 18:29 | 43.82207 | 18.33825 | 1709 ft | 62 kts | 117° |
| 2026-05-06 18:30 | 43.82073 | 18.34182 | 1711 ft | 34 kts | 117° |
| 2026-05-06 18:30 | 43.81987 | 18.34414 | 1714 ft | 16 kts | 116° |
| 2026-05-06 18:30 | 43.81950 | 18.34521 | 1715 ft | 9 kts | 109° |
| 2026-05-06 18:30 | 43.81969 | 18.34595 | 1716 ft | 9 kts | 41° |
| 2026-05-06 18:31 | 43.82034 | 18.34624 | 1714 ft | 11 kts | 358° |
| 2026-05-06 18:31 | 43.82102 | 18.34573 | 1714 ft | 14 kts | 313° |
| 2026-05-06 18:31 | 43.82150 | 18.34446 | 1712 ft | 16 kts | 296° |
| 2026-05-06 18:31 | 43.82206 | 18.34297 | 1712 ft | 18 kts | 297° |
| 2026-05-06 18:32 | 43.82268 | 18.34129 | 1710 ft | 21 kts | 299° |
| 2026-05-06 18:32 | 43.82339 | 18.33943 | 1708 ft | 23 kts | 297° |
| 2026-05-06 18:32 | 43.82398 | 18.33783 | 1707 ft | 8 kts | 297° |
| 2026-05-06 18:32 | 43.82430 | 18.33702 | 1709 ft | 11 kts | 298° |
| 2026-05-06 18:33 | 43.82465 | 18.33609 | 1706 ft | 9 kts | 298° |
| 2026-05-06 18:33 | 43.82515 | 18.33607 | 1704 ft | 4 kts | 26° |
| 2026-05-06 18:33 | 43.82534 | 18.33619 | 1704 ft | 3 kts | 25° |
| 2026-05-06 18:33 | 43.82540 | 18.33623 | 1704 ft | 0 kts | 27° |